Terminal Aerodrome Forecast
Issued by NWS Billings, MT

Home | Current Version | Previous Version | Text Only | Print | Product List | Glossary On
Versions: 1 2 3 4 5 6 7 8 9 10 11 12 13 14 15 16
000
FTUS45 KBYZ 201739
TAFBIL
TAF
KBIL 201739Z 2018/2118 24015G25KT P6SM SCT080 BKN120
     FM202200 29029G38KT P6SM VCTS SCT080CB BKN100
     FM210500 28018G25KT P6SM FEW050 BKN100
     FM211500 28025G35KT P6SM FEW050=

USA.gov is the U.S. government's official web portal to all federal, state and local government web resources and services.